AirNav   Pilot Hours Calculator
 
 378 users online  

0NY0 Bennetts Airport
North Creek, New York, USA

GOING TO NORTH CREEK?


FAA INFORMATION EFFECTIVE 22 APRIL 2021

Location

FAA Identifier: 0NY0
Lat/Long: 43-42-00.2330N 073-58-58.4760W
43-42.003883N 073-58.974600W
43.7000647,-73.9829100
(estimated)
Elevation: 1040 ft. / 317 m (estimated)
Variation: 14W (1985)
Time zone: UTC -4 (UTC -5 during Standard Time)
Zip code: 12853

Airport Operations

Airport use: Private use. Permission required prior to landing
Activation date: 09/1949
Control tower: no
ARTCC: BOSTON CENTER
FSS: BURLINGTON FLIGHT SERVICE STATION
Attendance: UNATNDD
Wind indicator: yes
Segmented circle: no

Airport Services

Airframe service: NONE
Powerplant service: NONE

Runway Information

Runway NW/SE

Dimensions: 3000 x 150 ft. / 914 x 46 m
Surface: turf
RUNWAY NW  RUNWAY SE
Traffic pattern: leftleft
Obstructions: hill50 ft. pline, 300 ft. from runway

Airport Ownership and Management from official FAA records

Ownership: Privately-owned
Owner: K. D. BENNETT
NORTH CREEK, NY 12853
Phone 518-251-2579
518-251-2579
Manager: Phone 518-251-2579

Airport Operational Statistics

Aircraft based on the field: 6
Single engine airplanes: 6
    

Additional Remarks

FOR CD CTC BOSTON ARTCC AT 603-879-6859.

Instrument Procedures

There are no published instrument procedures at 0NY0.

Some nearby airports with instrument procedures:

4B6 - Ticonderoga Municipal Airport (27 nm NE)
KGFL - Floyd Bennett Memorial Airport (27 nm SE)
K09 - Piseco Airport (27 nm SW)
KLKP - Lake Placid Airport (34 nm N)
5B2 - Saratoga County Airport (39 nm S)
 
Loc | Ops | Rwys | IFR | FBO | Links
Com | Nav | Svcs | Stats | Notes
Area around 0NY0 (Bennetts Airport)
 
Road maps at: MapQuest Bing Google
 
Aerial photo
WARNING: Photo may not be current or correct
Aerial photo of 0NY0 (Bennetts Airport)
Do you have a better or more recent aerial photo of Bennetts Airport that you would like to share? If so, please send us your photo.

 
Sectional chart

 
Airport distance calculator
Flying to Bennetts Airport? Find the distance to fly.

From to 0NY0

Sunrise and sunset
Times for 11-May-2021
 Local
(UTC-4)
 Zulu
(UTC)
Morning civil twilight05:0309:03
Sunrise05:3609:36
Sunset20:0800:08
Evening civil twilight20:4100:41

Current date and time
Zulu (UTC)  11-May-2021 08:02:13
Local (UTC-4)  11-May-2021 04:02:13
 
METAR
KGFL 
27nm SE 
110753Z AUTO 22005KT 10SM CLR 06/01 A2995 RMK AO2 SLP144 T00610011
K6B0 
42nm NE 
110755Z AUTO 00000KT 10SM SCT055 04/02 A2992 RMK AO2 T00430024
KSLK 
43nm N 
110751Z AUTO 00000KT 10SM OVC016 03/01 A2989 RMK AO2 SLP130 T00280011
KNY0 
45nm S 
110740Z AUTO 29007KT 10SM CLR 03/02 A2997 RMK AO2
KRUT 
46nm E 
110756Z AUTO 22005KT 10SM CLR 05/03 A2993 RMK AO2 SLP133 T00500028 $
TAF
KGFL 
27nm SE 
110523Z 1106/1206 24004KT P6SM SCT250 FM111200 24010KT P6SM FEW040 FM111600 25012G22KT P6SM SCT070 FM120100 23010KT P6SM FEW070 FM120400 23007KT P6SM VCSH BKN030
NOTAMs
Click for the latest NOTAMs
NOTAMs are issued by the DoD/FAA and will open in a separate window not controlled by AirNav.

 

 
 

Would you like to see your business listed on this page?

 If your business provides an interesting product or service to pilots, flight crews, aircraft, or users of the Bennetts Airport, you should consider listing it here.  To start the listing process, click on the button below
 
Add a business
 

Other Pages about Bennetts Airport

Update a link
 
Copyright © AirNav, LLC. All rights reserved. Privacy Policy  Contact